sensor_id;sensor_type;location;lat;lon;timestamp;P1;durP1;ratioP1;P2;durP2;ratioP2
17510;SDS011;8873;48.818;9.422;2022-07-09T00:01:54;6.68;;;3.58;;
17510;SDS011;8873;48.818;9.422;2022-07-09T00:04:21;4.28;;;3.53;;
17510;SDS011;8873;48.818;9.422;2022-07-09T00:06:50;5.15;;;3.10;;
17510;SDS011;8873;48.818;9.422;2022-07-09T00:09:18;6.15;;;3.30;;
17510;SDS011;8873;48.818;9.422;2022-07-09T00:11:46;6.72;;;3.45;;
17510;SDS011;8873;48.818;9.422;2022-07-09T00:14:13;4.82;;;3.40;;
17510;SDS011;8873;48.818;9.422;2022-07-09T00:16:41;9.50;;;3.25;;
17510;SDS011;8873;48.818;9.422;2022-07-09T00:19:08;4.63;;;3.17;;
17510;SDS011;8873;48.818;9.422;2022-07-09T00:21:36;4.55;;;3.40;;
17510;SDS011;8873;48.818;9.422;2022-07-09T00:24:05;5.47;;;3.30;;
17510;SDS011;8873;48.818;9.422;2022-07-09T00:26:33;4.18;;;2.92;;
17510;SDS011;8873;48.818;9.422;2022-07-09T00:29:00;5.85;;;3.03;;
17510;SDS011;8873;48.818;9.422;2022-07-09T00:31:28;3.40;;;3.10;;
17510;SDS011;8873;48.818;9.422;2022-07-09T00:33:56;8.02;;;3.58;;
17510;SDS011;8873;48.818;9.422;2022-07-09T00:36:23;4.10;;;3.17;;
17510;SDS011;8873;48.818;9.422;2022-07-09T00:38:51;3.15;;;2.92;;
17510;SDS011;8873;48.818;9.422;2022-07-09T00:41:20;5.75;;;3.35;;
17510;SDS011;8873;48.818;9.422;2022-07-09T00:43:47;6.35;;;3.20;;
17510;SDS011;8873;48.818;9.422;2022-07-09T00:46:16;5.03;;;2.92;;
17510;SDS011;8873;48.818;9.422;2022-07-09T00:48:43;3.75;;;2.88;;
17510;SDS011;8873;48.818;9.422;2022-07-09T00:51:12;4.80;;;2.92;;
17510;SDS011;8873;48.818;9.422;2022-07-09T00:53:40;4.25;;;3.15;;
17510;SDS011;8873;48.818;9.422;2022-07-09T00:56:08;5.43;;;3.30;;
17510;SDS011;8873;48.818;9.422;2022-07-09T00:58:37;4.07;;;3.10;;
17510;SDS011;8873;48.818;9.422;2022-07-09T01:01:06;6.53;;;3.10;;
17510;SDS011;8873;48.818;9.422;2022-07-09T01:03:33;3.80;;;3.17;;
17510;SDS011;8873;48.818;9.422;2022-07-09T01:06:01;5.85;;;3.20;;
17510;SDS011;8873;48.818;9.422;2022-07-09T01:08:28;3.58;;;2.92;;
17510;SDS011;8873;48.818;9.422;2022-07-09T01:10:57;5.40;;;2.95;;
17510;SDS011;8873;48.818;9.422;2022-07-09T01:13:24;5.38;;;3.50;;
17510;SDS011;8873;48.818;9.422;2022-07-09T01:15:54;9.45;;;3.63;;
17510;SDS011;8873;48.818;9.422;2022-07-09T01:18:21;10.30;;;4.57;;
17510;SDS011;8873;48.818;9.422;2022-07-09T01:20:51;6.43;;;3.60;;
17510;SDS011;8873;48.818;9.422;2022-07-09T01:23:19;6.53;;;3.58;;
17510;SDS011;8873;48.818;9.422;2022-07-09T01:25:46;7.50;;;3.70;;
17510;SDS011;8873;48.818;9.422;2022-07-09T01:28:14;6.57;;;3.55;;
17510;SDS011;8873;48.818;9.422;2022-07-09T01:30:42;5.70;;;3.60;;
17510;SDS011;8873;48.818;9.422;2022-07-09T01:33:09;6.57;;;3.60;;
17510;SDS011;8873;48.818;9.422;2022-07-09T01:35:37;3.72;;;3.40;;
17510;SDS011;8873;48.818;9.422;2022-07-09T01:38:06;7.68;;;3.67;;
17510;SDS011;8873;48.818;9.422;2022-07-09T01:40:34;3.97;;;3.53;;
17510;SDS011;8873;48.818;9.422;2022-07-09T01:43:01;4.35;;;3.40;;
17510;SDS011;8873;48.818;9.422;2022-07-09T01:45:29;3.63;;;3.28;;
17510;SDS011;8873;48.818;9.422;2022-07-09T01:47:56;5.13;;;3.60;;
17510;SDS011;8873;48.818;9.422;2022-07-09T01:50:27;4.03;;;3.60;;
17510;SDS011;8873;48.818;9.422;2022-07-09T01:52:55;6.53;;;3.83;;
17510;SDS011;8873;48.818;9.422;2022-07-09T01:55:24;6.22;;;3.58;;
17510;SDS011;8873;48.818;9.422;2022-07-09T01:57:51;6.28;;;3.55;;
17510;SDS011;8873;48.818;9.422;2022-07-09T02:00:19;6.95;;;3.15;;
17510;SDS011;8873;48.818;9.422;2022-07-09T02:02:46;4.53;;;3.15;;
17510;SDS011;8873;48.818;9.422;2022-07-09T02:05:14;4.28;;;3.67;;
17510;SDS011;8873;48.818;9.422;2022-07-09T02:07:42;6.40;;;3.88;;
17510;SDS011;8873;48.818;9.422;2022-07-09T02:10:09;5.80;;;3.55;;
17510;SDS011;8873;48.818;9.422;2022-07-09T02:12:38;7.55;;;4.30;;
17510;SDS011;8873;48.818;9.422;2022-07-09T02:15:06;7.53;;;3.70;;
17510;SDS011;8873;48.818;9.422;2022-07-09T02:17:34;5.88;;;3.72;;
17510;SDS011;8873;48.818;9.422;2022-07-09T02:20:02;7.88;;;4.80;;
17510;SDS011;8873;48.818;9.422;2022-07-09T02:22:30;5.32;;;3.20;;
17510;SDS011;8873;48.818;9.422;2022-07-09T02:24:58;4.85;;;3.15;;
17510;SDS011;8873;48.818;9.422;2022-07-09T02:27:26;7.75;;;3.63;;
17510;SDS011;8873;48.818;9.422;2022-07-09T02:29:55;6.47;;;4.00;;
17510;SDS011;8873;48.818;9.422;2022-07-09T02:32:22;7.03;;;3.50;;
17510;SDS011;8873;48.818;9.422;2022-07-09T02:34:50;5.07;;;3.45;;
17510;SDS011;8873;48.818;9.422;2022-07-09T02:37:17;5.35;;;3.95;;
17510;SDS011;8873;48.818;9.422;2022-07-09T02:39:45;3.58;;;3.28;;
17510;SDS011;8873;48.818;9.422;2022-07-09T02:42:13;4.15;;;3.85;;
17510;SDS011;8873;48.818;9.422;2022-07-09T02:44:40;6.45;;;3.25;;
17510;SDS011;8873;48.818;9.422;2022-07-09T02:47:11;4.35;;;3.75;;
17510;SDS011;8873;48.818;9.422;2022-07-09T02:49:38;4.25;;;3.40;;
17510;SDS011;8873;48.818;9.422;2022-07-09T02:52:06;8.05;;;3.40;;
17510;SDS011;8873;48.818;9.422;2022-07-09T02:54:34;5.03;;;3.42;;
17510;SDS011;8873;48.818;9.422;2022-07-09T02:57:01;10.10;;;3.70;;
17510;SDS011;8873;48.818;9.422;2022-07-09T02:59:29;5.43;;;3.35;;
17510;SDS011;8873;48.818;9.422;2022-07-09T03:01:57;6.30;;;4.13;;
17510;SDS011;8873;48.818;9.422;2022-07-09T03:04:26;3.63;;;3.33;;
17510;SDS011;8873;48.818;9.422;2022-07-09T03:06:53;4.63;;;3.20;;
17510;SDS011;8873;48.818;9.422;2022-07-09T03:09:21;8.52;;;4.30;;
17510;SDS011;8873;48.818;9.422;2022-07-09T03:11:49;6.80;;;3.83;;
17510;SDS011;8873;48.818;9.422;2022-07-09T03:14:16;4.72;;;3.53;;
17510;SDS011;8873;48.818;9.422;2022-07-09T03:16:44;5.35;;;3.70;;
17510;SDS011;8873;48.818;9.422;2022-07-09T03:19:12;7.07;;;3.60;;
17510;SDS011;8873;48.818;9.422;2022-07-09T03:21:41;6.93;;;3.40;;
17510;SDS011;8873;48.818;9.422;2022-07-09T03:24:09;5.25;;;3.65;;
17510;SDS011;8873;48.818;9.422;2022-07-09T03:26:36;6.65;;;3.67;;
17510;SDS011;8873;48.818;9.422;2022-07-09T03:29:04;6.10;;;3.85;;
17510;SDS011;8873;48.818;9.422;2022-07-09T03:31:31;5.85;;;3.65;;
17510;SDS011;8873;48.818;9.422;2022-07-09T03:33:59;5.70;;;4.00;;
17510;SDS011;8873;48.818;9.422;2022-07-09T03:36:27;6.90;;;3.65;;
17510;SDS011;8873;48.818;9.422;2022-07-09T03:38:56;4.13;;;3.75;;
17510;SDS011;8873;48.818;9.422;2022-07-09T03:41:24;6.32;;;4.13;;
17510;SDS011;8873;48.818;9.422;2022-07-09T03:43:52;5.70;;;3.55;;
17510;SDS011;8873;48.818;9.422;2022-07-09T03:46:19;4.40;;;3.97;;
17510;SDS011;8873;48.818;9.422;2022-07-09T03:48:47;4.18;;;3.78;;
17510;SDS011;8873;48.818;9.422;2022-07-09T03:51:16;5.18;;;3.65;;
17510;SDS011;8873;48.818;9.422;2022-07-09T03:53:43;4.78;;;3.60;;
17510;SDS011;8873;48.818;9.422;2022-07-09T03:56:12;5.40;;;3.50;;
17510;SDS011;8873;48.818;9.422;2022-07-09T03:58:40;5.07;;;3.50;;
17510;SDS011;8873;48.818;9.422;2022-07-09T04:01:09;4.70;;;3.80;;
17510;SDS011;8873;48.818;9.422;2022-07-09T04:03:37;6.00;;;3.42;;
17510;SDS011;8873;48.818;9.422;2022-07-09T04:06:05;5.00;;;3.67;;
17510;SDS011;8873;48.818;9.422;2022-07-09T04:08:33;5.82;;;4.03;;
17510;SDS011;8873;48.818;9.422;2022-07-09T04:11:01;7.60;;;4.18;;
17510;SDS011;8873;48.818;9.422;2022-07-09T04:13:30;4.47;;;4.07;;
17510;SDS011;8873;48.818;9.422;2022-07-09T04:15:58;6.47;;;4.60;;
17510;SDS011;8873;48.818;9.422;2022-07-09T04:18:25;6.50;;;3.65;;
17510;SDS011;8873;48.818;9.422;2022-07-09T04:20:53;8.82;;;3.75;;
17510;SDS011;8873;48.818;9.422;2022-07-09T04:23:20;6.15;;;4.10;;
17510;SDS011;8873;48.818;9.422;2022-07-09T04:25:49;6.32;;;3.80;;
17510;SDS011;8873;48.818;9.422;2022-07-09T04:28:17;7.78;;;4.20;;
17510;SDS011;8873;48.818;9.422;2022-07-09T04:30:46;6.68;;;3.97;;
17510;SDS011;8873;48.818;9.422;2022-07-09T04:33:14;5.68;;;4.25;;
17510;SDS011;8873;48.818;9.422;2022-07-09T04:35:42;6.43;;;3.75;;
17510;SDS011;8873;48.818;9.422;2022-07-09T04:38:10;6.45;;;4.40;;
17510;SDS011;8873;48.818;9.422;2022-07-09T04:40:38;13.45;;;3.78;;
17510;SDS011;8873;48.818;9.422;2022-07-09T04:43:05;7.32;;;3.70;;
17510;SDS011;8873;48.818;9.422;2022-07-09T04:45:33;4.50;;;4.03;;
17510;SDS011;8873;48.818;9.422;2022-07-09T04:48:03;6.05;;;4.40;;
17510;SDS011;8873;48.818;9.422;2022-07-09T04:50:30;8.02;;;4.10;;
17510;SDS011;8873;48.818;9.422;2022-07-09T04:52:58;5.60;;;4.30;;
17510;SDS011;8873;48.818;9.422;2022-07-09T04:55:26;6.70;;;3.88;;
17510;SDS011;8873;48.818;9.422;2022-07-09T04:57:53;4.13;;;3.80;;
17510;SDS011;8873;48.818;9.422;2022-07-09T05:00:21;10.18;;;3.92;;
17510;SDS011;8873;48.818;9.422;2022-07-09T05:02:48;7.80;;;3.90;;
17510;SDS011;8873;48.818;9.422;2022-07-09T05:05:17;7.32;;;3.97;;
17510;SDS011;8873;48.818;9.422;2022-07-09T05:07:48;5.13;;;4.10;;
17510;SDS011;8873;48.818;9.422;2022-07-09T05:10:16;5.55;;;4.25;;
17510;SDS011;8873;48.818;9.422;2022-07-09T05:12:43;7.78;;;4.22;;
17510;SDS011;8873;48.818;9.422;2022-07-09T05:15:11;5.80;;;3.70;;
17510;SDS011;8873;48.818;9.422;2022-07-09T05:17:39;6.55;;;3.53;;
17510;SDS011;8873;48.818;9.422;2022-07-09T05:20:07;7.15;;;4.60;;
17510;SDS011;8873;48.818;9.422;2022-07-09T05:22:37;5.85;;;3.72;;
17510;SDS011;8873;48.818;9.422;2022-07-09T05:25:05;5.00;;;4.10;;
17510;SDS011;8873;48.818;9.422;2022-07-09T05:27:40;6.18;;;3.60;;
17510;SDS011;8873;48.818;9.422;2022-07-09T05:30:07;8.45;;;4.32;;
17510;SDS011;8873;48.818;9.422;2022-07-09T05:32:43;10.13;;;4.00;;
17510;SDS011;8873;48.818;9.422;2022-07-09T05:35:11;10.23;;;3.63;;
17510;SDS011;8873;48.818;9.422;2022-07-09T05:37:43;5.05;;;3.78;;
17510;SDS011;8873;48.818;9.422;2022-07-09T05:40:11;5.63;;;3.75;;
17510;SDS011;8873;48.818;9.422;2022-07-09T05:42:39;8.15;;;3.70;;
17510;SDS011;8873;48.818;9.422;2022-07-09T05:45:07;6.43;;;4.22;;
17510;SDS011;8873;48.818;9.422;2022-07-09T05:47:35;7.18;;;3.60;;
17510;SDS011;8873;48.818;9.422;2022-07-09T05:50:03;3.75;;;3.35;;
17510;SDS011;8873;48.818;9.422;2022-07-09T05:52:30;5.40;;;3.42;;
17510;SDS011;8873;48.818;9.422;2022-07-09T05:54:59;4.78;;;3.53;;
17510;SDS011;8873;48.818;9.422;2022-07-09T05:57:33;6.15;;;3.20;;
17510;SDS011;8873;48.818;9.422;2022-07-09T06:00:01;6.82;;;3.53;;
17510;SDS011;8873;48.818;9.422;2022-07-09T06:02:30;4.72;;;3.35;;
17510;SDS011;8873;48.818;9.422;2022-07-09T06:04:58;3.42;;;3.10;;
17510;SDS011;8873;48.818;9.422;2022-07-09T06:07:26;5.60;;;3.60;;
17510;SDS011;8873;48.818;9.422;2022-07-09T06:09:55;6.10;;;3.10;;
17510;SDS011;8873;48.818;9.422;2022-07-09T06:12:24;6.53;;;3.35;;
17510;SDS011;8873;48.818;9.422;2022-07-09T06:14:52;5.80;;;3.70;;
17510;SDS011;8873;48.818;9.422;2022-07-09T06:17:20;4.28;;;3.17;;
17510;SDS011;8873;48.818;9.422;2022-07-09T06:19:47;6.15;;;3.47;;
17510;SDS011;8873;48.818;9.422;2022-07-09T06:22:15;3.95;;;3.58;;
17510;SDS011;8873;48.818;9.422;2022-07-09T06:24:42;4.07;;;3.05;;
17510;SDS011;8873;48.818;9.422;2022-07-09T06:27:10;5.03;;;3.15;;
17510;SDS011;8873;48.818;9.422;2022-07-09T06:29:39;3.47;;;3.20;;
17510;SDS011;8873;48.818;9.422;2022-07-09T06:32:07;5.10;;;3.15;;
17510;SDS011;8873;48.818;9.422;2022-07-09T06:34:35;6.25;;;2.97;;
17510;SDS011;8873;48.818;9.422;2022-07-09T06:37:03;5.25;;;3.33;;
17510;SDS011;8873;48.818;9.422;2022-07-09T06:39:30;4.13;;;2.90;;
17510;SDS011;8873;48.818;9.422;2022-07-09T06:42:12;5.75;;;3.08;;
17510;SDS011;8873;48.818;9.422;2022-07-09T06:44:41;3.30;;;2.90;;
17510;SDS011;8873;48.818;9.422;2022-07-09T06:47:09;6.93;;;2.70;;
17510;SDS011;8873;48.818;9.422;2022-07-09T06:49:37;4.65;;;3.10;;
17510;SDS011;8873;48.818;9.422;2022-07-09T06:52:05;5.78;;;2.60;;
17510;SDS011;8873;48.818;9.422;2022-07-09T06:54:34;3.72;;;2.78;;
17510;SDS011;8873;48.818;9.422;2022-07-09T06:57:02;5.22;;;3.40;;
17510;SDS011;8873;48.818;9.422;2022-07-09T06:59:32;7.95;;;2.50;;
17510;SDS011;8873;48.818;9.422;2022-07-09T07:02:01;6.97;;;2.95;;
17510;SDS011;8873;48.818;9.422;2022-07-09T07:04:28;4.88;;;2.65;;
17510;SDS011;8873;48.818;9.422;2022-07-09T07:06:56;11.05;;;2.80;;
17510;SDS011;8873;48.818;9.422;2022-07-09T07:09:24;5.55;;;2.95;;
17510;SDS011;8873;48.818;9.422;2022-07-09T07:11:51;3.85;;;2.58;;
17510;SDS011;8873;48.818;9.422;2022-07-09T07:14:19;6.00;;;3.13;;
17510;SDS011;8873;48.818;9.422;2022-07-09T07:16:46;4.00;;;2.60;;
17510;SDS011;8873;48.818;9.422;2022-07-09T07:19:16;4.00;;;2.50;;
17510;SDS011;8873;48.818;9.422;2022-07-09T07:21:46;9.43;;;2.85;;
17510;SDS011;8873;48.818;9.422;2022-07-09T07:24:14;2.95;;;2.63;;
17510;SDS011;8873;48.818;9.422;2022-07-09T07:26:41;3.47;;;2.42;;
17510;SDS011;8873;48.818;9.422;2022-07-09T07:29:09;3.78;;;2.35;;
17510;SDS011;8873;48.818;9.422;2022-07-09T07:31:38;3.55;;;2.30;;
17510;SDS011;8873;48.818;9.422;2022-07-09T07:34:05;2.85;;;2.47;;
17510;SDS011;8873;48.818;9.422;2022-07-09T07:36:34;3.97;;;2.85;;
17510;SDS011;8873;48.818;9.422;2022-07-09T07:39:02;9.80;;;2.90;;
17510;SDS011;8873;48.818;9.422;2022-07-09T07:41:30;5.38;;;2.95;;
17510;SDS011;8873;48.818;9.422;2022-07-09T07:43:58;3.22;;;2.40;;
17510;SDS011;8873;48.818;9.422;2022-07-09T07:46:25;5.78;;;2.83;;
17510;SDS011;8873;48.818;9.422;2022-07-09T07:48:53;4.22;;;3.08;;
17510;SDS011;8873;48.818;9.422;2022-07-09T07:51:21;4.30;;;2.30;;
17510;SDS011;8873;48.818;9.422;2022-07-09T07:53:50;2.90;;;2.25;;
17510;SDS011;8873;48.818;9.422;2022-07-09T07:56:18;4.47;;;2.70;;
17510;SDS011;8873;48.818;9.422;2022-07-09T07:58:46;5.18;;;2.80;;
17510;SDS011;8873;48.818;9.422;2022-07-09T08:01:13;4.03;;;2.60;;
17510;SDS011;8873;48.818;9.422;2022-07-09T08:03:41;4.82;;;2.67;;
17510;SDS011;8873;48.818;9.422;2022-07-09T08:06:09;2.33;;;2.13;;
17510;SDS011;8873;48.818;9.422;2022-07-09T08:08:36;5.38;;;2.50;;
17510;SDS011;8873;48.818;9.422;2022-07-09T08:11:06;2.60;;;2.22;;
17510;SDS011;8873;48.818;9.422;2022-07-09T08:13:33;6.15;;;3.10;;
17510;SDS011;8873;48.818;9.422;2022-07-09T08:16:01;5.72;;;2.60;;
17510;SDS011;8873;48.818;9.422;2022-07-09T08:18:29;3.13;;;2.63;;
17510;SDS011;8873;48.818;9.422;2022-07-09T08:20:57;3.38;;;2.28;;
17510;SDS011;8873;48.818;9.422;2022-07-09T08:23:25;4.95;;;2.45;;
17510;SDS011;8873;48.818;9.422;2022-07-09T08:25:53;3.22;;;2.92;;
17510;SDS011;8873;48.818;9.422;2022-07-09T08:28:22;2.67;;;2.30;;
17510;SDS011;8873;48.818;9.422;2022-07-09T08:30:49;4.50;;;2.33;;
17510;SDS011;8873;48.818;9.422;2022-07-09T08:33:17;3.10;;;2.10;;
17510;SDS011;8873;48.818;9.422;2022-07-09T08:35:45;6.13;;;2.20;;
17510;SDS011;8873;48.818;9.422;2022-07-09T08:38:12;2.28;;;2.10;;
17510;SDS011;8873;48.818;9.422;2022-07-09T08:40:42;3.78;;;2.75;;
17510;SDS011;8873;48.818;9.422;2022-07-09T08:43:11;6.05;;;2.42;;
17510;SDS011;8873;48.818;9.422;2022-07-09T08:45:40;5.85;;;2.40;;
17510;SDS011;8873;48.818;9.422;2022-07-09T08:48:09;3.50;;;2.20;;
17510;SDS011;8873;48.818;9.422;2022-07-09T08:50:37;2.35;;;2.15;;
17510;SDS011;8873;48.818;9.422;2022-07-09T08:53:09;2.60;;;1.70;;
17510;SDS011;8873;48.818;9.422;2022-07-09T08:55:40;4.43;;;1.88;;
17510;SDS011;8873;48.818;9.422;2022-07-09T08:58:08;3.00;;;1.90;;
17510;SDS011;8873;48.818;9.422;2022-07-09T09:00:37;3.47;;;1.90;;
17510;SDS011;8873;48.818;9.422;2022-07-09T09:03:06;1.80;;;1.70;;
17510;SDS011;8873;48.818;9.422;2022-07-09T09:05:33;4.40;;;1.90;;
17510;SDS011;8873;48.818;9.422;2022-07-09T09:08:15;5.38;;;1.73;;
17510;SDS011;8873;48.818;9.422;2022-07-09T09:10:44;2.10;;;1.50;;
17510;SDS011;8873;48.818;9.422;2022-07-09T09:13:13;2.72;;;1.60;;
17510;SDS011;8873;48.818;9.422;2022-07-09T09:15:41;6.30;;;2.15;;
17510;SDS011;8873;48.818;9.422;2022-07-09T09:18:10;6.63;;;4.18;;
17510;SDS011;8873;48.818;9.422;2022-07-09T09:20:38;8.88;;;2.58;;
17510;SDS011;8873;48.818;9.422;2022-07-09T09:23:15;2.13;;;1.90;;
17510;SDS011;8873;48.818;9.422;2022-07-09T09:25:43;2.20;;;1.50;;
17510;SDS011;8873;48.818;9.422;2022-07-09T09:28:11;4.50;;;1.60;;
17510;SDS011;8873;48.818;9.422;2022-07-09T09:30:41;2.78;;;1.60;;
17510;SDS011;8873;48.818;9.422;2022-07-09T09:33:13;3.42;;;1.60;;
17510;SDS011;8873;48.818;9.422;2022-07-09T09:35:43;2.03;;;1.15;;
17510;SDS011;8873;48.818;9.422;2022-07-09T09:38:11;3.15;;;1.45;;
17510;SDS011;8873;48.818;9.422;2022-07-09T09:40:44;2.80;;;1.25;;
17510;SDS011;8873;48.818;9.422;2022-07-09T09:43:11;2.15;;;1.40;;
17510;SDS011;8873;48.818;9.422;2022-07-09T09:45:41;3.15;;;1.60;;
17510;SDS011;8873;48.818;9.422;2022-07-09T09:48:09;2.38;;;1.38;;
17510;SDS011;8873;48.818;9.422;2022-07-09T09:50:38;2.53;;;1.65;;
17510;SDS011;8873;48.818;9.422;2022-07-09T09:53:06;3.92;;;1.40;;
17510;SDS011;8873;48.818;9.422;2022-07-09T09:55:37;1.95;;;1.60;;
17510;SDS011;8873;48.818;9.422;2022-07-09T09:58:05;1.40;;;1.30;;
17510;SDS011;8873;48.818;9.422;2022-07-09T10:00:33;4.18;;;1.60;;
17510;SDS011;8873;48.818;9.422;2022-07-09T10:03:01;2.28;;;1.35;;
17510;SDS011;8873;48.818;9.422;2022-07-09T10:05:29;2.35;;;1.38;;
17510;SDS011;8873;48.818;9.422;2022-07-09T10:07:59;3.38;;;1.48;;
17510;SDS011;8873;48.818;9.422;2022-07-09T10:10:27;1.20;;;1.20;;
17510;SDS011;8873;48.818;9.422;2022-07-09T10:12:55;3.35;;;1.20;;
17510;SDS011;8873;48.818;9.422;2022-07-09T10:15:23;1.10;;;1.10;;
17510;SDS011;8873;48.818;9.422;2022-07-09T10:17:53;1.88;;;1.50;;
17510;SDS011;8873;48.818;9.422;2022-07-09T10:20:30;1.77;;;1.15;;
17510;SDS011;8873;48.818;9.422;2022-07-09T10:23:02;1.80;;;1.20;;
17510;SDS011;8873;48.818;9.422;2022-07-09T10:25:31;2.83;;;1.17;;
17510;SDS011;8873;48.818;9.422;2022-07-09T10:27:59;2.17;;;1.52;;
17510;SDS011;8873;48.818;9.422;2022-07-09T10:30:27;4.15;;;1.45;;
17510;SDS011;8873;48.818;9.422;2022-07-09T10:33:01;1.27;;;1.17;;
17510;SDS011;8873;48.818;9.422;2022-07-09T10:35:29;1.63;;;1.52;;
17510;SDS011;8873;48.818;9.422;2022-07-09T10:37:58;7.25;;;2.22;;
17510;SDS011;8873;48.818;9.422;2022-07-09T10:40:36;2.08;;;1.50;;
17510;SDS011;8873;48.818;9.422;2022-07-09T10:43:04;4.15;;;1.70;;
17510;SDS011;8873;48.818;9.422;2022-07-09T10:45:36;4.05;;;1.55;;
17510;SDS011;8873;48.818;9.422;2022-07-09T10:48:04;28.88;;;5.60;;
17510;SDS011;8873;48.818;9.422;2022-07-09T10:50:35;5.28;;;1.77;;
17510;SDS011;8873;48.818;9.422;2022-07-09T10:53:02;6.45;;;1.92;;
17510;SDS011;8873;48.818;9.422;2022-07-09T10:55:32;2.35;;;1.55;;
17510;SDS011;8873;48.818;9.422;2022-07-09T10:57:59;1.70;;;1.45;;
17510;SDS011;8873;48.818;9.422;2022-07-09T11:00:28;1.35;;;1.33;;
17510;SDS011;8873;48.818;9.422;2022-07-09T11:02:57;1.88;;;1.60;;
17510;SDS011;8873;48.818;9.422;2022-07-09T11:05:25;3.65;;;1.70;;
17510;SDS011;8873;48.818;9.422;2022-07-09T11:07:57;4.65;;;1.60;;
17510;SDS011;8873;48.818;9.422;2022-07-09T11:10:25;4.15;;;1.30;;
17510;SDS011;8873;48.818;9.422;2022-07-09T11:12:55;1.42;;;1.27;;
17510;SDS011;8873;48.818;9.422;2022-07-09T11:15:25;3.50;;;1.48;;
17510;SDS011;8873;48.818;9.422;2022-07-09T11:17:54;2.25;;;1.30;;
17510;SDS011;8873;48.818;9.422;2022-07-09T11:20:22;1.65;;;1.40;;
17510;SDS011;8873;48.818;9.422;2022-07-09T11:22:50;1.60;;;1.50;;
17510;SDS011;8873;48.818;9.422;2022-07-09T11:25:23;3.45;;;1.70;;
17510;SDS011;8873;48.818;9.422;2022-07-09T11:27:52;2.53;;;1.52;;
17510;SDS011;8873;48.818;9.422;2022-07-09T11:30:22;2.95;;;1.60;;
17510;SDS011;8873;48.818;9.422;2022-07-09T11:32:49;2.28;;;1.67;;
17510;SDS011;8873;48.818;9.422;2022-07-09T11:35:24;1.95;;;1.85;;
17510;SDS011;8873;48.818;9.422;2022-07-09T11:37:53;3.53;;;1.77;;
17510;SDS011;8873;48.818;9.422;2022-07-09T11:40:21;3.70;;;1.63;;
17510;SDS011;8873;48.818;9.422;2022-07-09T11:42:49;4.18;;;1.75;;
17510;SDS011;8873;48.818;9.422;2022-07-09T11:45:21;4.95;;;1.67;;
17510;SDS011;8873;48.818;9.422;2022-07-09T11:47:49;6.00;;;1.90;;
17510;SDS011;8873;48.818;9.422;2022-07-09T11:50:18;3.40;;;1.60;;
17510;SDS011;8873;48.818;9.422;2022-07-09T11:52:50;3.75;;;2.33;;
17510;SDS011;8873;48.818;9.422;2022-07-09T11:55:18;4.95;;;1.70;;
17510;SDS011;8873;48.818;9.422;2022-07-09T11:57:52;1.95;;;1.60;;
17510;SDS011;8873;48.818;9.422;2022-07-09T12:00:26;3.03;;;1.55;;
17510;SDS011;8873;48.818;9.422;2022-07-09T12:02:54;1.75;;;1.52;;
17510;SDS011;8873;48.818;9.422;2022-07-09T12:05:27;1.95;;;1.85;;
17510;SDS011;8873;48.818;9.422;2022-07-09T12:07:56;1.60;;;1.50;;
17510;SDS011;8873;48.818;9.422;2022-07-09T12:10:25;1.50;;;1.40;;
17510;SDS011;8873;48.818;9.422;2022-07-09T12:12:53;2.10;;;1.60;;
17510;SDS011;8873;48.818;9.422;2022-07-09T12:15:21;3.58;;;1.50;;
17510;SDS011;8873;48.818;9.422;2022-07-09T12:17:53;1.95;;;1.40;;
17510;SDS011;8873;48.818;9.422;2022-07-09T12:20:22;2.42;;;1.70;;
17510;SDS011;8873;48.818;9.422;2022-07-09T12:22:50;2.13;;;1.98;;
17510;SDS011;8873;48.818;9.422;2022-07-09T12:25:18;1.75;;;1.45;;
17510;SDS011;8873;48.818;9.422;2022-07-09T12:27:45;4.38;;;1.80;;
17510;SDS011;8873;48.818;9.422;2022-07-09T12:30:13;2.33;;;1.70;;
17510;SDS011;8873;48.818;9.422;2022-07-09T12:32:41;1.83;;;1.73;;
17510;SDS011;8873;48.818;9.422;2022-07-09T12:35:10;1.73;;;1.58;;
17510;SDS011;8873;48.818;9.422;2022-07-09T12:37:38;1.45;;;1.35;;
17510;SDS011;8873;48.818;9.422;2022-07-09T12:40:07;3.88;;;1.73;;
17510;SDS011;8873;48.818;9.422;2022-07-09T12:42:36;1.80;;;1.70;;
17510;SDS011;8873;48.818;9.422;2022-07-09T12:45:05;1.95;;;1.40;;
17510;SDS011;8873;48.818;9.422;2022-07-09T12:47:36;1.80;;;1.55;;
17510;SDS011;8873;48.818;9.422;2022-07-09T12:50:04;2.50;;;1.63;;
17510;SDS011;8873;48.818;9.422;2022-07-09T12:52:34;1.52;;;1.42;;
17510;SDS011;8873;48.818;9.422;2022-07-09T12:55:02;2.03;;;1.50;;
17510;SDS011;8873;48.818;9.422;2022-07-09T12:57:30;2.20;;;1.48;;
17510;SDS011;8873;48.818;9.422;2022-07-09T12:59:58;2.00;;;1.33;;
17510;SDS011;8873;48.818;9.422;2022-07-09T13:02:25;1.75;;;1.20;;
17510;SDS011;8873;48.818;9.422;2022-07-09T13:04:53;3.80;;;1.50;;
17510;SDS011;8873;48.818;9.422;2022-07-09T13:07:21;5.40;;;1.60;;
17510;SDS011;8873;48.818;9.422;2022-07-09T13:09:50;1.70;;;1.60;;
17510;SDS011;8873;48.818;9.422;2022-07-09T13:12:18;1.50;;;1.40;;
17510;SDS011;8873;48.818;9.422;2022-07-09T13:14:46;1.40;;;1.33;;
17510;SDS011;8873;48.818;9.422;2022-07-09T13:17:13;2.90;;;1.40;;
17510;SDS011;8873;48.818;9.422;2022-07-09T13:19:55;2.25;;;1.20;;
17510;SDS011;8873;48.818;9.422;2022-07-09T13:22:23;1.75;;;1.30;;
17510;SDS011;8873;48.818;9.422;2022-07-09T13:24:52;3.58;;;1.50;;
17510;SDS011;8873;48.818;9.422;2022-07-09T13:27:25;2.47;;;1.60;;
17510;SDS011;8873;48.818;9.422;2022-07-09T13:29:53;1.35;;;1.33;;
17510;SDS011;8873;48.818;9.422;2022-07-09T13:32:22;1.48;;;1.40;;
17510;SDS011;8873;48.818;9.422;2022-07-09T13:34:49;1.30;;;1.30;;
17510;SDS011;8873;48.818;9.422;2022-07-09T13:37:17;1.70;;;1.60;;
17510;SDS011;8873;48.818;9.422;2022-07-09T13:39:45;3.22;;;1.35;;
17510;SDS011;8873;48.818;9.422;2022-07-09T13:42:14;2.08;;;1.50;;
17510;SDS011;8873;48.818;9.422;2022-07-09T13:44:42;1.98;;;1.20;;
17510;SDS011;8873;48.818;9.422;2022-07-09T13:47:10;4.70;;;1.48;;
17510;SDS011;8873;48.818;9.422;2022-07-09T13:49:37;2.28;;;1.30;;
17510;SDS011;8873;48.818;9.422;2022-07-09T13:52:05;1.90;;;1.40;;
17510;SDS011;8873;48.818;9.422;2022-07-09T13:54:33;3.53;;;1.40;;
17510;SDS011;8873;48.818;9.422;2022-07-09T13:57:01;1.33;;;1.23;;
17510;SDS011;8873;48.818;9.422;2022-07-09T13:59:30;2.58;;;1.25;;
17510;SDS011;8873;48.818;9.422;2022-07-09T14:01:57;2.97;;;1.45;;
17510;SDS011;8873;48.818;9.422;2022-07-09T14:04:25;1.23;;;1.13;;
17510;SDS011;8873;48.818;9.422;2022-07-09T14:06:53;3.38;;;1.20;;
17510;SDS011;8873;48.818;9.422;2022-07-09T14:09:21;1.52;;;1.42;;
17510;SDS011;8873;48.818;9.422;2022-07-09T14:11:48;1.77;;;1.40;;
17510;SDS011;8873;48.818;9.422;2022-07-09T14:14:16;1.88;;;1.60;;
17510;SDS011;8873;48.818;9.422;2022-07-09T14:16:45;2.22;;;1.33;;
17510;SDS011;8873;48.818;9.422;2022-07-09T14:19:13;1.48;;;1.38;;
17510;SDS011;8873;48.818;9.422;2022-07-09T14:21:40;1.55;;;1.55;;
17510;SDS011;8873;48.818;9.422;2022-07-09T14:24:11;2.22;;;1.40;;
17510;SDS011;8873;48.818;9.422;2022-07-09T14:26:39;1.42;;;1.40;;
17510;SDS011;8873;48.818;9.422;2022-07-09T14:29:08;1.55;;;1.45;;
17510;SDS011;8873;48.818;9.422;2022-07-09T14:31:36;1.55;;;1.45;;
17510;SDS011;8873;48.818;9.422;2022-07-09T14:34:05;1.55;;;1.45;;
17510;SDS011;8873;48.818;9.422;2022-07-09T14:36:33;5.63;;;1.45;;
17510;SDS011;8873;48.818;9.422;2022-07-09T14:39:01;3.70;;;1.70;;
17510;SDS011;8873;48.818;9.422;2022-07-09T14:41:29;1.75;;;1.60;;
17510;SDS011;8873;48.818;9.422;2022-07-09T14:43:57;1.70;;;1.70;;
17510;SDS011;8873;48.818;9.422;2022-07-09T14:46:24;3.83;;;1.60;;
17510;SDS011;8873;48.818;9.422;2022-07-09T14:48:52;2.35;;;1.70;;
17510;SDS011;8873;48.818;9.422;2022-07-09T14:51:21;1.60;;;1.50;;
17510;SDS011;8873;48.818;9.422;2022-07-09T14:53:49;1.92;;;1.60;;
17510;SDS011;8873;48.818;9.422;2022-07-09T14:56:16;2.75;;;1.98;;
17510;SDS011;8873;48.818;9.422;2022-07-09T14:58:44;2.08;;;1.70;;
17510;SDS011;8873;48.818;9.422;2022-07-09T15:01:11;3.80;;;2.28;;
17510;SDS011;8873;48.818;9.422;2022-07-09T15:03:39;3.85;;;1.90;;
17510;SDS011;8873;48.818;9.422;2022-07-09T15:06:08;4.95;;;1.80;;
17510;SDS011;8873;48.818;9.422;2022-07-09T15:08:36;2.42;;;1.85;;